Time,TemperatureF,DewpointF,PressureIn,WindDirection,WindDirectionDegrees,WindSpeedMPH,WindSpeedGustMPH,Humidity,HourlyPrecipIn,Conditions,Clouds,dailyrainin,SoftwareType,DateUTC
2013-02-19 00:02:00,20.0,3.0,29.90,ENE,67,3.0,9.0,47,0.00,,,0.00,,2013-02-19 05:02:00,
2013-02-19 00:13:00,20.0,3.0,29.90,ENE,67,3.0,9.0,47,0.00,,,0.00,,2013-02-19 05:13:00,
2013-02-19 00:22:00,19.0,2.0,29.90,ENE,72,4.0,9.0,47,0.00,,,0.00,,2013-02-19 05:22:00,
2013-02-19 00:32:00,20.0,3.0,29.91,East,79,3.0,9.0,46,0.00,,,0.00,,2013-02-19 05:32:00,
2013-02-19 00:43:00,20.0,3.0,29.91,East,79,3.0,9.0,46,0.00,,,0.00,,2013-02-19 05:43:00,
2013-02-19 00:52:00,20.0,2.0,29.92,NE,56,4.0,10.0,45,0.00,,,0.00,,2013-02-19 05:52:00,
2013-02-19 01:03:00,20.0,3.0,29.92,East,91,7.0,13.0,47,0.00,,,0.00,,2013-02-19 06:03:00,
2013-02-19 01:12:00,20.0,3.0,29.92,East,91,7.0,13.0,47,0.00,,,0.00,,2013-02-19 06:12:00,
2013-02-19 01:22:00,19.0,2.0,29.93,ESE,104,7.0,15.0,46,0.00,,,0.00,,2013-02-19 06:22:00,
2013-02-19 01:32:00,19.0,2.0,29.93,ESE,110,7.0,13.0,46,0.00,,,0.00,,2013-02-19 06:32:00,
2013-02-19 01:42:00,19.0,2.0,29.93,ESE,110,7.0,13.0,46,0.00,,,0.00,,2013-02-19 06:42:00,
2013-02-19 01:52:00,20.0,3.0,29.93,ESE,104,9.0,16.0,46,0.00,,,0.00,,2013-02-19 06:52:00,
2013-02-19 02:02:00,19.0,2.0,29.95,East,82,7.0,14.0,46,0.00,,,0.00,,2013-02-19 07:02:00,
2013-02-19 02:12:00,19.0,2.0,29.95,East,82,7.0,14.0,46,0.00,,,0.00,,2013-02-19 07:12:00,
2013-02-19 02:22:00,20.0,3.0,29.95,NNE,30,11.0,18.0,46,0.00,,,0.00,,2013-02-19 07:22:00,
2013-02-19 02:32:00,20.0,3.0,29.96,SE,129,7.0,15.0,46,0.00,,,0.00,,2013-02-19 07:32:00,
2013-02-19 02:42:00,20.0,3.0,29.96,SE,129,7.0,15.0,46,0.00,,,0.00,,2013-02-19 07:42:00,
2013-02-19 02:52:00,20.0,3.0,29.96,ENE,65,7.0,14.0,47,0.00,,,0.00,,2013-02-19 07:52:00,
2013-02-19 03:02:00,20.0,3.0,29.96,East,79,7.0,14.0,47,0.00,,,0.00,,2013-02-19 08:02:00,
2013-02-19 03:11:00,20.0,3.0,29.96,East,79,7.0,14.0,47,0.00,,,0.00,,2013-02-19 08:11:00,
2013-02-19 03:22:00,20.0,3.0,29.96,East,79,7.0,14.0,47,0.00,,,0.00,,2013-02-19 08:22:00,
2013-02-19 03:32:00,19.0,2.0,29.97,ENE,59,8.0,14.0,47,0.00,,,0.00,,2013-02-19 08:32:00,
2013-02-19 03:42:00,19.0,2.0,29.97,ENE,59,8.0,14.0,47,0.00,,,0.00,,2013-02-19 08:42:00,
2013-02-19 03:52:00,19.0,2.0,29.98,East,81,9.0,18.0,47,0.00,,,0.00,,2013-02-19 08:52:00,
2013-02-19 04:02:00,19.0,2.0,29.99,ENE,70,9.0,17.0,46,0.00,,,0.00,,2013-02-19 09:02:00,
2013-02-19 04:11:00,19.0,2.0,29.99,ENE,70,9.0,17.0,46,0.00,,,0.00,,2013-02-19 09:11:00,
2013-02-19 04:22:00,19.0,2.0,30.00,ESE,113,5.0,18.0,46,0.00,,,0.00,,2013-02-19 09:22:00,
2013-02-19 04:32:00,20.0,2.0,30.01,East,88,5.0,17.0,45,0.00,,,0.00,,2013-02-19 09:32:00,
2013-02-19 04:42:00,20.0,2.0,30.01,East,88,5.0,17.0,45,0.00,,,0.00,,2013-02-19 09:42:00,
2013-02-19 04:52:00,20.0,3.0,30.02,ESE,113,3.0,12.0,46,0.00,,,0.00,,2013-02-19 09:52:00,
2013-02-19 05:02:00,19.0,0.0,30.02,ENE,58,7.0,15.0,43,0.00,,,0.00,,2013-02-19 10:02:00,
2013-02-19 05:11:00,19.0,0.0,30.02,ENE,58,7.0,15.0,43,0.00,,,0.00,,2013-02-19 10:11:00,
2013-02-19 05:22:00,19.0,0.0,30.03,ESE,113,7.0,12.0,43,0.00,,,0.00,,2013-02-19 10:22:00,
2013-02-19 05:32:00,19.0,1.0,30.03,East,88,5.0,13.0,44,0.00,,,0.00,,2013-02-19 10:32:00,
2013-02-19 05:42:00,19.0,1.0,30.03,East,88,5.0,13.0,44,0.00,,,0.00,,2013-02-19 10:42:00,
2013-02-19 05:52:00,18.0,0.0,30.03,ENE,75,4.0,13.0,45,0.00,,,0.00,,2013-02-19 10:52:00,
2013-02-19 06:01:00,18.0,1.0,30.03,East,98,6.0,16.0,46,0.00,,,0.00,,2013-02-19 11:01:00,
2013-02-19 06:11:00,18.0,1.0,30.03,East,98,6.0,16.0,46,0.00,,,0.00,,2013-02-19 11:11:00,
2013-02-19 06:22:00,18.0,1.0,30.03,ESE,106,4.0,11.0,46,0.00,,,0.00,,2013-02-19 11:22:00,
2013-02-19 06:32:00,18.0,1.0,30.04,ESE,106,5.0,11.0,47,0.00,,,0.00,,2013-02-19 11:32:00,
2013-02-19 06:42:00,18.0,1.0,30.04,ESE,106,5.0,11.0,47,0.00,,,0.00,,2013-02-19 11:42:00,
2013-02-19 06:52:00,18.0,1.0,30.04,ESE,103,5.0,12.0,46,0.00,,,0.00,,2013-02-19 11:52:00,
2013-02-19 07:02:00,18.0,1.0,30.04,East,80,1.0,8.0,47,0.00,,,0.00,,2013-02-19 12:02:00,
2013-02-19 07:12:00,18.0,1.0,30.04,East,80,1.0,8.0,47,0.00,,,0.00,,2013-02-19 12:12:00,
2013-02-19 07:22:00,18.0,1.0,30.04,East,82,3.0,7.0,47,0.00,,,0.00,,2013-02-19 12:22:00,
2013-02-19 07:32:00,18.0,1.0,30.05,ESE,121,0.0,4.0,47,0.00,,,0.00,,2013-02-19 12:32:00,
2013-02-19 07:42:00,18.0,1.0,30.05,ESE,121,0.0,4.0,47,0.00,,,0.00,,2013-02-19 12:42:00,
2013-02-19 07:52:00,20.0,4.0,30.05,ENE,68,0.0,4.0,49,0.00,,,0.00,,2013-02-19 12:52:00,
2013-02-19 08:02:00,20.0,3.0,30.06,ENE,70,2.0,6.0,46,0.00,,,0.00,,2013-02-19 13:02:00,
2013-02-19 08:11:00,20.0,3.0,30.06,ENE,70,2.0,6.0,46,0.00,,,0.00,,2013-02-19 13:11:00,
2013-02-19 08:22:00,20.0,3.0,30.06,ENE,70,2.0,6.0,46,0.00,,,0.00,,2013-02-19 13:22:00,
2013-02-19 08:32:00,22.0,3.0,30.06,ESE,111,1.0,4.0,43,0.00,,,0.00,,2013-02-19 13:32:00,
2013-02-19 08:42:00,22.0,3.0,30.06,ESE,111,1.0,4.0,43,0.00,,,0.00,,2013-02-19 13:42:00,
2013-02-19 08:52:00,23.0,4.0,30.06,SE,143,3.0,5.0,43,0.00,,,0.00,,2013-02-19 13:52:00,
2013-02-19 09:02:00,24.0,5.0,30.06,East,88,0.0,4.0,43,0.00,,,0.00,,2013-02-19 14:02:00,
2013-02-19 09:12:00,24.0,5.0,30.06,East,88,0.0,4.0,43,0.00,,,0.00,,2013-02-19 14:12:00,
2013-02-19 09:22:00,24.0,4.0,30.06,ESE,109,0.0,4.0,42,0.00,,,0.00,,2013-02-19 14:22:00,
2013-02-19 09:33:00,26.0,6.0,30.06,ESE,117,2.0,4.0,41,0.00,,,0.00,,2013-02-19 14:33:00,
2013-02-19 09:42:00,26.0,6.0,30.06,ESE,117,2.0,4.0,41,0.00,,,0.00,,2013-02-19 14:42:00,
2013-02-19 09:52:00,27.0,6.0,30.05,SSE,158,0.0,3.0,40,0.00,,,0.00,,2013-02-19 14:52:00,
2013-02-19 10:02:00,28.0,5.0,30.05,ENE,67,0.0,2.0,37,0.00,,,0.00,,2013-02-19 15:02:00,
2013-02-19 10:11:00,28.0,5.0,30.05,ENE,67,0.0,2.0,37,0.00,,,0.00,,2013-02-19 15:11:00,
2013-02-19 10:22:00,29.0,5.0,30.05,ENE,70,1.0,3.0,36,0.00,,,0.00,,2013-02-19 15:22:00,
2013-02-19 10:32:00,30.0,6.0,30.03,SE,140,0.0,2.0,36,0.00,,,0.00,,2013-02-19 15:32:00,
2013-02-19 10:42:00,30.0,6.0,30.03,SE,140,0.0,2.0,36,0.00,,,0.00,,2013-02-19 15:42:00,
2013-02-19 10:52:00,31.0,7.0,30.03,North,4,0.0,3.0,36,0.00,,,0.00,,2013-02-19 15:52:00,
2013-02-19 11:02:00,32.0,7.0,30.03,West,269,0.0,2.0,35,0.00,,,0.00,,2013-02-19 16:02:00,
2013-02-19 11:11:00,32.0,7.0,30.03,West,269,0.0,2.0,35,0.00,,,0.00,,2013-02-19 16:11:00,
2013-02-19 11:22:00,33.0,8.0,30.02,ESE,103,0.0,2.0,35,0.00,,,0.00,,2013-02-19 16:22:00,
2013-02-19 11:32:00,35.0,7.0,30.02,ENE,74,1.0,2.0,30,0.00,,,0.00,,2013-02-19 16:32:00,
2013-02-19 11:42:00,35.0,7.0,30.02,ENE,74,1.0,2.0,30,0.00,,,0.00,,2013-02-19 16:42:00,
2013-02-19 11:52:00,35.0,7.0,30.02,East,79,1.0,3.0,31,0.00,,,0.00,,2013-02-19 16:52:00,
2013-02-19 12:01:00,36.0,8.0,30.02,ENE,72,2.0,4.0,30,0.00,,,0.00,,2013-02-19 17:01:00,
2013-02-19 12:11:00,36.0,8.0,30.02,ENE,72,2.0,4.0,30,0.00,,,0.00,,2013-02-19 17:11:00,
2013-02-19 12:21:00,36.0,8.0,30.02,ENE,60,6.0,8.0,31,0.00,,,0.00,,2013-02-19 17:21:00,
2013-02-19 12:32:00,37.0,8.0,30.02,ENE,72,4.0,7.0,29,0.00,,,0.00,,2013-02-19 17:32:00,
2013-02-19 12:42:00,37.0,8.0,30.02,ENE,72,4.0,7.0,29,0.00,,,0.00,,2013-02-19 17:42:00,
2013-02-19 12:52:00,37.0,8.0,30.02,ENE,72,4.0,7.0,29,0.00,,,0.00,,2013-02-19 17:52:00,
2013-02-19 13:02:00,43.0,12.0,29.99,SE,144,0.0,1.0,28,0.00,,,0.00,,2013-02-19 18:02:00,
2013-02-19 13:11:00,43.0,12.0,29.99,SE,144,0.0,1.0,28,0.00,,,0.00,,2013-02-19 18:11:00,
2013-02-19 13:21:00,43.0,14.0,29.98,SE,126,0.0,1.0,31,0.00,,,0.00,,2013-02-19 18:21:00,
2013-02-19 13:32:00,47.0,16.0,29.98,SE,129,0.0,2.0,28,0.00,,,0.00,,2013-02-19 18:32:00,
2013-02-19 13:42:00,47.0,16.0,29.98,SE,129,0.0,2.0,28,0.00,,,0.00,,2013-02-19 18:42:00,
2013-02-19 13:52:00,45.0,15.0,29.98,SE,142,0.0,4.0,29,0.00,,,0.00,,2013-02-19 18:52:00,
2013-02-19 14:01:00,44.0,15.0,29.98,SW,225,1.0,3.0,30,0.00,,,0.00,,2013-02-19 19:01:00,
2013-02-19 14:11:00,44.0,15.0,29.98,SW,225,1.0,3.0,30,0.00,,,0.00,,2013-02-19 19:11:00,
2013-02-19 14:21:00,44.0,15.0,29.96,East,92,0.0,4.0,30,0.00,,,0.00,,2013-02-19 19:21:00,
2013-02-19 14:32:00,45.0,16.0,29.96,East,83,1.0,2.0,31,0.00,,,0.00,,2013-02-19 19:32:00,
2013-02-19 14:42:00,45.0,16.0,29.96,East,83,1.0,2.0,31,0.00,,,0.00,,2013-02-19 19:42:00,
2013-02-19 14:52:00,44.0,12.0,29.95,North,356,6.0,13.0,27,0.00,,,0.00,,2013-02-19 19:52:00,
2013-02-19 15:02:00,43.0,0.0,29.95,NE,56,8.0,12.0,16,0.00,,,0.00,,2013-02-19 20:02:00,
2013-02-19 15:22:00,42.0,5.0,29.96,ENE,77,8.0,13.0,21,0.00,,,0.00,,2013-02-19 20:22:00,
2013-02-19 15:32:00,41.0,8.0,29.95,ENE,65,5.0,10.0,25,0.00,,,0.00,,2013-02-19 20:32:00,
2013-02-19 15:42:00,41.0,8.0,29.95,ENE,65,5.0,10.0,25,0.00,,,0.00,,2013-02-19 20:42:00,
2013-02-19 15:52:00,40.0,10.0,29.94,NNW,332,5.0,9.0,28,0.00,,,0.00,,2013-02-19 20:52:00,
2013-02-19 16:02:00,39.0,12.0,29.94,NE,38,6.0,10.0,33,0.00,,,0.00,,2013-02-19 21:02:00,
2013-02-19 16:11:00,39.0,12.0,29.94,NE,38,6.0,10.0,33,0.00,,,0.00,,2013-02-19 21:11:00,
2013-02-19 16:21:00,38.0,15.0,29.93,NE,49,4.0,10.0,38,0.00,,,0.00,,2013-02-19 21:21:00,
2013-02-19 16:32:00,38.0,16.0,29.92,ENE,60,1.0,7.0,40,0.00,,,0.00,,2013-02-19 21:32:00,
2013-02-19 16:42:00,38.0,16.0,29.92,ENE,60,1.0,7.0,40,0.00,,,0.00,,2013-02-19 21:42:00,
2013-02-19 16:51:00,37.0,16.0,29.92,North,350,4.0,9.0,41,0.00,,,0.00,,2013-02-19 21:51:00,
2013-02-19 17:02:00,37.0,16.0,29.93,ENE,75,7.0,12.0,42,0.00,,,0.00,,2013-02-19 22:02:00,
2013-02-19 17:11:00,37.0,16.0,29.93,ENE,75,7.0,12.0,42,0.00,,,0.00,,2013-02-19 22:11:00,
2013-02-19 17:22:00,36.0,16.0,29.92,SSE,156,5.0,11.0,43,0.00,,,0.00,,2013-02-19 22:22:00,
2013-02-19 17:32:00,35.0,17.0,29.92,NE,56,7.0,11.0,47,0.00,,,0.00,,2013-02-19 22:32:00,
2013-02-19 17:42:00,35.0,17.0,29.92,NE,56,7.0,11.0,47,0.00,,,0.00,,2013-02-19 22:42:00,
2013-02-19 17:52:00,35.0,20.0,29.91,NNW,345,8.0,13.0,53,0.00,,,0.00,,2013-02-19 22:52:00,
2013-02-19 18:01:00,35.0,21.0,29.91,ENE,69,2.0,8.0,57,0.00,,,0.00,,2013-02-19 23:01:00,
2013-02-19 18:11:00,35.0,21.0,29.91,ENE,69,2.0,8.0,57,0.00,,,0.00,,2013-02-19 23:11:00,
2013-02-19 18:21:00,35.0,22.0,29.91,NNW,345,2.0,4.0,59,0.00,,,0.00,,2013-02-19 23:21:00,
2013-02-19 18:32:00,35.0,22.0,29.90,NE,34,1.0,5.0,59,0.00,,,0.00,,2013-02-19 23:32:00,
2013-02-19 18:42:00,35.0,22.0,29.90,NE,34,1.0,5.0,59,0.00,,,0.00,,2013-02-19 23:42:00,
2013-02-19 18:52:00,35.0,22.0,29.89,ESE,119,0.0,4.0,59,0.00,,,0.00,,2013-02-19 23:52:00,
2013-02-19 19:02:00,35.0,23.0,29.88,NW,307,1.0,3.0,61,0.00,,,0.00,,2013-02-20 00:02:00,
2013-02-19 19:11:00,35.0,23.0,29.88,NW,307,1.0,3.0,61,0.00,,,0.00,,2013-02-20 00:11:00,
2013-02-19 19:22:00,35.0,24.0,29.87,NNE,26,0.0,4.0,64,0.00,,,0.00,,2013-02-20 00:22:00,
2013-02-19 19:32:00,35.0,25.0,29.86,North,358,0.0,3.0,66,0.00,,,0.00,,2013-02-20 00:32:00,
2013-02-19 19:42:00,35.0,25.0,29.86,North,358,0.0,3.0,66,0.00,,,0.00,,2013-02-20 00:42:00,
2013-02-19 19:52:00,35.0,26.0,29.85,NW,319,1.0,7.0,69,0.00,,,0.00,,2013-02-20 00:52:00,
2013-02-19 20:02:00,36.0,27.0,29.85,North,11,2.0,6.0,70,0.00,,,0.00,,2013-02-20 01:02:00,
2013-02-19 20:11:00,36.0,27.0,29.85,North,11,2.0,6.0,70,0.00,,,0.00,,2013-02-20 01:11:00,
2013-02-19 20:22:00,36.0,28.0,29.83,NNW,347,3.0,7.0,73,0.00,,,0.00,,2013-02-20 01:22:00,
2013-02-19 20:32:00,36.0,30.0,29.82,North,354,3.0,7.0,78,0.00,,,0.00,,2013-02-20 01:32:00,
2013-02-19 20:42:00,36.0,30.0,29.82,North,354,3.0,7.0,78,0.00,,,0.00,,2013-02-20 01:42:00,
2013-02-19 20:52:00,36.0,31.0,29.80,ESE,115,3.0,9.0,83,0.01,,,0.01,,2013-02-20 01:52:00,
2013-02-19 21:02:00,36.0,32.0,29.80,East,84,2.0,8.0,86,0.01,,,0.01,,2013-02-20 02:02:00,
2013-02-19 21:11:00,36.0,32.0,29.80,East,84,2.0,8.0,86,0.01,,,0.01,,2013-02-20 02:11:00,
2013-02-19 21:22:00,37.0,34.0,29.79,WNW,292,2.0,5.0,87,0.01,,,0.01,,2013-02-20 02:22:00,
2013-02-19 21:32:00,37.0,34.0,29.78,NNW,343,3.0,8.0,88,0.01,,,0.01,,2013-02-20 02:32:00,
2013-02-19 21:42:00,37.0,34.0,29.78,NNW,343,3.0,8.0,88,0.01,,,0.01,,2013-02-20 02:42:00,
2013-02-19 21:52:00,38.0,35.0,29.77,NNW,344,8.0,17.0,88,0.00,,,0.01,,2013-02-20 02:52:00,
2013-02-19 22:02:00,38.0,35.0,29.77,NNW,344,8.0,17.0,88,0.00,,,0.01,,2013-02-20 03:02:00,
2013-02-19 22:12:00,38.0,35.0,29.77,NNW,344,8.0,17.0,88,0.00,,,0.01,,2013-02-20 03:12:00,
2013-02-19 22:22:00,39.0,36.0,29.75,NNW,333,5.0,12.0,89,0.00,,,0.01,,2013-02-20 03:22:00,
2013-02-19 22:32:00,39.0,36.0,29.75,NNW,333,5.0,12.0,89,0.00,,,0.01,,2013-02-20 03:32:00,
2013-02-19 22:42:00,39.0,36.0,29.75,NNW,333,5.0,12.0,89,0.00,,,0.01,,2013-02-20 03:42:00,
2013-02-19 22:52:00,38.0,36.0,29.74,NNW,328,5.0,11.0,91,0.00,,,0.01,,2013-02-20 03:52:00,
2013-02-19 23:01:00,38.0,36.0,29.73,NW,307,3.0,9.0,91,0.00,,,0.01,,2013-02-20 04:01:00,
2013-02-19 23:11:00,38.0,36.0,29.73,NW,307,3.0,9.0,91,0.00,,,0.01,,2013-02-20 04:11:00,
2013-02-19 23:21:00,38.0,36.0,29.70,West,276,3.0,8.0,92,0.01,,,0.02,,2013-02-20 04:21:00,
2013-02-19 23:32:00,39.0,37.0,29.68,NE,39,3.0,11.0,93,0.01,,,0.02,,2013-02-20 04:32:00,
2013-02-19 23:42:00,39.0,37.0,29.68,NE,39,3.0,11.0,93,0.01,,,0.02,,2013-02-20 04:42:00,
2013-02-19 23:52:00,39.0,37.0,29.69,NNW,338,6.0,12.0,93,0.02,,,0.03,,2013-02-20 04:52:00,